Time;durP1;ratioP1;P1;durP2;ratioP2;P2;SDS_P1;SDS_P2;PMS_P1;PMS_P2;Temp;Humidity;BMP_temperature;BMP_pressure;BME280_temperature;BME280_humidity;BME280_pressure;Samples;Min_cycle;Max_cycle;Signal;HPM_P1;HPM_P2
2021/11/23 00:02:17;;;;;;;7.75;4.22;;;5.00;99.90;;;;;;5049948;28;20028;-54
2021/11/23 00:04:42;;;;;;;5.38;3.83;;;5.10;99.90;;;;;;5032635;28;20029;-54
2021/11/23 00:07:08;;;;;;;6.57;4.43;;;5.10;99.90;;;;;;5050429;28;20029;-55
2021/11/23 00:09:35;;;;;;;8.73;4.45;;;5.20;99.90;;;;;;5049990;28;20040;-54
2021/11/23 00:12:00;;;;;;;9.77;4.10;;;5.20;99.90;;;;;;5045857;28;20056;-56
2021/11/23 00:14:26;;;;;;;10.27;5.13;;;5.20;99.90;;;;;;5073377;22;20064;-50
2021/11/23 00:16:51;;;;;;;9.38;4.97;;;5.20;99.90;;;;;;5050281;28;20029;-55
2021/11/23 00:19:17;;;;;;;6.70;4.85;;;5.20;99.90;;;;;;5049644;28;20033;-56
2021/11/23 00:21:42;;;;;;;6.50;4.85;;;5.30;99.90;;;;;;5050120;28;20037;-53
2021/11/23 00:24:08;;;;;;;6.13;5.00;;;5.30;99.90;;;;;;5050227;28;20033;-53
2021/11/23 00:26:34;;;;;;;7.53;5.57;;;5.40;99.90;;;;;;5031460;28;20025;-56
2021/11/23 00:29:00;;;;;;;6.32;5.35;;;5.40;99.90;;;;;;5049825;28;20009;-56
2021/11/23 00:31:25;;;;;;;14.93;6.25;;;5.40;99.90;;;;;;5049702;28;20044;-54
2021/11/23 00:33:51;;;;;;;10.52;5.95;;;5.50;99.90;;;;;;5050176;28;20080;-51
2021/11/23 00:36:16;;;;;;;6.65;5.32;;;5.50;99.90;;;;;;5049588;28;20029;-52
2021/11/23 00:38:44;;;;;;;8.63;5.68;;;5.50;99.90;;;;;;5049492;28;20125;-53
2021/11/23 00:41:11;;;;;;;11.80;6.05;;;5.60;99.90;;;;;;5050286;28;20029;-54
2021/11/23 00:43:37;;;;;;;8.65;6.15;;;5.60;99.90;;;;;;5050430;28;20060;-53
2021/11/23 00:46:03;;;;;;;10.73;5.90;;;5.60;99.90;;;;;;5050000;28;20052;-52
2021/11/23 00:48:28;;;;;;;9.60;5.93;;;5.60;99.90;;;;;;5049661;28;20025;-54
2021/11/23 00:50:54;;;;;;;9.85;7.05;;;5.70;99.90;;;;;;5049969;28;20033;-56
2021/11/23 00:53:20;;;;;;;11.00;6.50;;;5.70;99.90;;;;;;5049725;28;20369;-51
2021/11/23 00:55:45;;;;;;;12.77;6.40;;;5.80;99.90;;;;;;5050182;28;20130;-56
2021/11/23 00:58:11;;;;;;;8.77;5.78;;;5.80;99.90;;;;;;5050027;28;20029;-51
2021/11/23 01:00:37;;;;;;;7.78;6.03;;;5.80;99.90;;;;;;5049862;28;20032;-55
2021/11/23 01:03:02;;;;;;;9.23;6.53;;;5.80;99.90;;;;;;5049567;28;20028;-54
2021/11/23 01:05:28;;;;;;;8.13;6.30;;;5.90;99.90;;;;;;5047142;28;20025;-53
2021/11/23 01:07:53;;;;;;;9.05;6.10;;;5.90;99.90;;;;;;5049364;28;20021;-53
2021/11/23 01:10:20;;;;;;;7.82;6.22;;;5.90;99.90;;;;;;5048748;28;20724;-56
2021/11/23 01:12:45;;;;;;;7.22;6.20;;;5.90;99.90;;;;;;5044524;28;20031;-49
2021/11/23 01:15:11;;;;;;;9.85;5.72;;;5.90;99.90;;;;;;5034489;28;20420;-53
2021/11/23 01:17:37;;;;;;;10.52;6.72;;;5.90;99.90;;;;;;5042035;28;20473;-56
2021/11/23 01:20:06;;;;;;;11.55;8.05;;;6.00;99.90;;;;;;5031472;28;20020;-55
2021/11/23 01:22:31;;;;;;;11.57;6.78;;;6.00;99.90;;;;;;5049533;28;20021;-52
2021/11/23 01:24:57;;;;;;;9.18;6.63;;;5.90;99.90;;;;;;5049710;28;20071;-53
2021/11/23 01:27:22;;;;;;;12.43;8.30;;;6.00;99.90;;;;;;5049756;28;20025;-54
2021/11/23 01:29:48;;;;;;;10.77;7.47;;;6.00;99.90;;;;;;5048370;28;20033;-53
2021/11/23 01:32:13;;;;;;;10.38;7.65;;;6.00;99.90;;;;;;5031482;28;20035;-53
2021/11/23 01:34:39;;;;;;;14.52;8.88;;;6.00;99.90;;;;;;5030298;28;20505;-54
2021/11/23 01:37:05;;;;;;;12.07;8.40;;;6.00;99.90;;;;;;5048984;28;20078;-52
2021/11/23 01:39:30;;;;;;;11.32;7.93;;;6.00;99.90;;;;;;5049112;28;20029;-55
2021/11/23 01:41:56;;;;;;;15.90;9.57;;;6.00;99.90;;;;;;5048135;28;20033;-54
2021/11/23 01:44:22;;;;;;;12.75;8.30;;;6.10;99.90;;;;;;5031043;28;20509;-56
2021/11/23 01:46:48;;;;;;;16.02;8.40;;;6.10;99.90;;;;;;5048706;28;20027;-55
2021/11/23 01:49:14;;;;;;;15.38;9.05;;;6.10;99.90;;;;;;5049125;28;20107;-55
2021/11/23 01:51:40;;;;;;;14.25;9.13;;;6.10;99.90;;;;;;5049367;28;20051;-53
2021/11/23 01:54:06;;;;;;;12.75;9.07;;;6.10;99.90;;;;;;5048241;28;20468;-54
2021/11/23 01:56:32;;;;;;;16.23;10.30;;;6.10;99.90;;;;;;5048557;28;20494;-54
2021/11/23 01:58:57;;;;;;;21.45;10.32;;;6.20;99.90;;;;;;5046475;28;20447;-52
2021/11/23 02:01:23;;;;;;;14.98;9.32;;;6.10;99.90;;;;;;5046139;28;20024;-54
2021/11/23 02:03:49;;;;;;;15.18;9.10;;;6.20;99.90;;;;;;5046772;28;20752;-52
2021/11/23 02:06:14;;;;;;;14.43;8.95;;;6.20;99.90;;;;;;5048668;28;20027;-53
2021/11/23 02:08:40;;;;;;;15.00;9.32;;;6.30;99.90;;;;;;5030696;28;20577;-53
2021/11/23 02:11:07;;;;;;;19.45;10.38;;;6.30;99.90;;;;;;5048360;28;20090;-51
2021/11/23 02:13:33;;;;;;;13.45;8.95;;;6.30;99.90;;;;;;5048667;28;20039;-54
2021/11/23 02:15:59;;;;;;;19.77;9.30;;;6.30;99.90;;;;;;5047996;28;20041;-52
2021/11/23 02:18:26;;;;;;;16.00;9.57;;;6.30;99.90;;;;;;5047884;28;20033;-55
2021/11/23 02:20:53;;;;;;;17.02;9.55;;;6.40;99.90;;;;;;5048770;28;20029;-54
2021/11/23 02:23:19;;;;;;;17.45;9.25;;;6.30;99.90;;;;;;5048654;28;20048;-53
2021/11/23 02:25:46;;;;;;;17.10;9.60;;;6.30;99.90;;;;;;5048596;28;20499;-54
2021/11/23 02:28:12;;;;;;;16.10;9.20;;;6.40;99.90;;;;;;5035565;28;20484;-54
2021/11/23 02:30:44;;;;;;;18.77;9.90;;;6.40;99.90;;;;;;5047735;28;20033;-53
2021/11/23 02:33:10;;;;;;;14.05;9.27;;;6.40;99.90;;;;;;5047901;28;20028;-53
2021/11/23 02:35:36;;;;;;;16.50;9.40;;;6.40;99.90;;;;;;5048550;28;20021;-54
2021/11/23 02:38:02;;;;;;;16.45;9.13;;;6.40;99.90;;;;;;5047787;28;20408;-56
2021/11/23 02:40:28;;;;;;;13.02;8.73;;;6.40;99.90;;;;;;5048537;28;20021;-54
2021/11/23 02:42:54;;;;;;;12.90;8.80;;;6.40;99.90;;;;;;5030185;28;20025;-52
2021/11/23 02:45:22;;;;;;;12.13;8.23;;;6.40;99.90;;;;;;5052367;28;20037;-54
2021/11/23 02:47:48;;;;;;;15.50;8.65;;;6.40;99.90;;;;;;5055115;28;20029;-53
2021/11/23 02:50:15;;;;;;;18.83;9.32;;;6.40;99.90;;;;;;5054349;28;20035;-54
2021/11/23 02:52:48;;;;;;;11.93;8.57;;;6.40;99.90;;;;;;5036843;28;20051;-54
2021/11/23 02:55:14;;;;;;;16.08;9.27;;;6.40;99.90;;;;;;5055021;28;20099;-54
2021/11/23 02:57:40;;;;;;;13.80;8.90;;;6.40;99.90;;;;;;5054677;28;20037;-55
2021/11/23 03:00:09;;;;;;;14.38;8.65;;;6.40;99.90;;;;;;5041940;28;20032;-53
2021/11/23 03:02:35;;;;;;;13.32;9.23;;;6.40;99.90;;;;;;5054874;28;20527;-54
2021/11/23 03:05:03;;;;;;;16.42;9.00;;;6.40;99.90;;;;;;5054399;28;20031;-51
2021/11/23 03:07:28;;;;;;;10.15;7.78;;;6.40;99.90;;;;;;5054445;28;20098;-56
2021/11/23 03:09:56;;;;;;;11.93;8.70;;;6.40;99.90;;;;;;5054880;28;20508;-53
2021/11/23 03:12:24;;;;;;;14.25;7.47;;;6.40;99.90;;;;;;5055135;28;20535;-54
2021/11/23 03:14:49;;;;;;;16.15;8.02;;;6.40;99.90;;;;;;5054326;28;20036;-52
2021/11/23 03:17:17;;;;;;;10.95;7.50;;;6.40;99.90;;;;;;5055139;28;20499;-52
2021/11/23 03:19:44;;;;;;;13.20;7.18;;;6.40;99.90;;;;;;5037869;28;20215;-55
2021/11/23 03:22:10;;;;;;;10.43;7.38;;;6.40;99.90;;;;;;5055058;28;20028;-52
2021/11/23 03:24:36;;;;;;;12.48;7.70;;;6.40;99.90;;;;;;5054726;28;20021;-54
2021/11/23 03:27:02;;;;;;;12.45;7.10;;;6.30;99.90;;;;;;5054779;28;20029;-54
2021/11/23 03:29:28;;;;;;;8.93;6.63;;;6.30;99.90;;;;;;5054022;28;20358;-50
2021/11/23 03:31:54;;;;;;;8.43;5.95;;;6.30;99.90;;;;;;5035440;28;20075;-51
2021/11/23 03:34:20;;;;;;;11.55;6.93;;;6.30;99.90;;;;;;5054425;28;20048;-53
2021/11/23 03:36:46;;;;;;;11.23;6.30;;;6.30;99.90;;;;;;5054693;28;20713;-54
2021/11/23 03:39:12;;;;;;;13.18;6.22;;;6.30;99.90;;;;;;5054128;28;20109;-54
2021/11/23 03:41:38;;;;;;;11.90;6.28;;;6.30;99.90;;;;;;5054051;28;20060;-55
2021/11/23 03:44:04;;;;;;;11.30;6.32;;;6.30;99.90;;;;;;5054088;28;20033;-54
2021/11/23 03:46:29;;;;;;;10.43;5.95;;;6.30;99.90;;;;;;5054760;28;20056;-55
2021/11/23 03:48:55;;;;;;;13.50;6.40;;;6.20;99.90;;;;;;5054488;28;20083;-54
2021/11/23 03:51:22;;;;;;;11.40;6.30;;;6.20;99.90;;;;;;5054163;28;20112;-56
2021/11/23 03:53:47;;;;;;;12.98;6.65;;;6.20;99.90;;;;;;5054416;28;20053;-55
2021/11/23 03:56:13;;;;;;;14.43;5.70;;;6.10;99.90;;;;;;5052108;28;20087;-54
2021/11/23 03:58:41;;;;;;;10.80;6.38;;;6.10;99.90;;;;;;5032572;28;20029;-53
2021/11/23 04:01:08;;;;;;;8.70;5.40;;;6.10;99.90;;;;;;5050521;28;20100;-55
2021/11/23 04:03:34;;;;;;;9.05;4.95;;;6.10;99.90;;;;;;5033127;28;20037;-52
2021/11/23 04:06:03;;;;;;;6.97;5.25;;;6.00;99.90;;;;;;5051133;28;20052;-53
2021/11/23 04:08:29;;;;;;;11.35;4.95;;;6.00;99.90;;;;;;5050684;28;20044;-56
2021/11/23 04:10:55;;;;;;;8.02;5.05;;;5.90;99.90;;;;;;5050187;28;20025;-56
2021/11/23 04:13:20;;;;;;;8.75;4.60;;;5.90;99.90;;;;;;5050851;28;20029;-54
2021/11/23 04:15:47;;;;;;;10.30;5.25;;;5.80;99.90;;;;;;5050855;28;20119;-51
2021/11/23 04:18:13;;;;;;;9.45;3.67;;;5.80;99.90;;;;;;5050650;28;20493;-56
2021/11/23 04:20:39;;;;;;;11.98;4.50;;;5.70;99.90;;;;;;5050801;28;20040;-55
2021/11/23 04:23:06;;;;;;;5.05;3.60;;;5.70;99.90;;;;;;5050257;28;20059;-55
2021/11/23 04:25:31;;;;;;;8.05;3.78;;;5.70;99.90;;;;;;5050612;28;20021;-54
2021/11/23 04:27:57;;;;;;;8.27;4.32;;;5.70;99.90;;;;;;5049830;28;20481;-54
2021/11/23 04:30:24;;;;;;;6.72;3.65;;;5.60;99.90;;;;;;5050099;28;20374;-56
2021/11/23 04:32:50;;;;;;;6.88;3.95;;;5.60;99.90;;;;;;5050290;28;20112;-52
2021/11/23 04:35:17;;;;;;;10.98;3.90;;;5.60;99.90;;;;;;5049133;28;20025;-51
2021/11/23 04:37:43;;;;;;;9.45;4.15;;;5.60;99.90;;;;;;5049645;28;20029;-55
2021/11/23 04:40:12;;;;;;;7.43;4.32;;;5.70;99.90;;;;;;5032595;28;20025;-53
2021/11/23 04:42:38;;;;;;;7.25;3.10;;;5.70;99.90;;;;;;5049451;28;20036;-53
2021/11/23 04:45:06;;;;;;;10.05;3.80;;;5.70;99.90;;;;;;5050075;28;20599;-56
2021/11/23 04:47:32;;;;;;;7.60;3.35;;;5.70;99.90;;;;;;5050086;28;20028;-55
2021/11/23 04:49:58;;;;;;;7.63;3.88;;;5.70;99.90;;;;;;5032476;28;20021;-55
2021/11/23 04:52:24;;;;;;;10.50;3.55;;;5.80;99.90;;;;;;5050202;28;20033;-56
2021/11/23 04:54:50;;;;;;;7.40;3.22;;;5.80;99.90;;;;;;5049880;28;20632;-55
2021/11/23 04:57:16;;;;;;;8.57;3.72;;;5.80;99.90;;;;;;5049650;28;20025;-56
2021/11/23 04:59:42;;;;;;;6.75;4.38;;;5.80;99.90;;;;;;5049560;28;20496;-54
2021/11/23 05:02:08;;;;;;;8.07;4.65;;;5.80;99.90;;;;;;5049291;28;20044;-51
2021/11/23 05:04:34;;;;;;;12.35;5.97;;;5.90;99.90;;;;;;5042910;28;20021;-56
2021/11/23 05:07:00;;;;;;;15.75;6.28;;;5.90;99.90;;;;;;5050418;28;20027;-54
2021/11/23 05:09:25;;;;;;;14.43;5.70;;;5.90;99.90;;;;;;5049485;28;20096;-54
2021/11/23 05:11:51;;;;;;;14.80;7.13;;;5.90;99.90;;;;;;5049667;28;20029;-57
2021/11/23 05:14:17;;;;;;;16.83;7.03;;;6.00;99.90;;;;;;5049494;28;20036;-54
2021/11/23 05:16:43;;;;;;;16.95;7.93;;;6.00;99.90;;;;;;5050150;28;20025;-54
2021/11/23 05:19:09;;;;;;;27.38;8.60;;;6.00;99.90;;;;;;5049102;28;20108;-54
2021/11/23 05:21:35;;;;;;;19.83;9.02;;;6.00;99.90;;;;;;5041598;28;20492;-52
2021/11/23 05:24:00;;;;;;;17.67;8.85;;;6.00;99.90;;;;;;5030891;28;20025;-53
2021/11/23 05:26:27;;;;;;;16.85;8.68;;;6.00;99.90;;;;;;5049602;28;20404;-52
2021/11/23 05:28:53;;;;;;;31.42;10.73;;;6.00;99.90;;;;;;5048697;28;20503;-51
2021/11/23 05:31:19;;;;;;;22.02;9.45;;;6.00;99.90;;;;;;5048609;28;20032;-54
2021/11/23 05:33:45;;;;;;;18.55;9.00;;;6.00;99.90;;;;;;5048876;28;20033;-52
2021/11/23 05:36:10;;;;;;;25.98;10.60;;;6.00;99.90;;;;;;5048801;28;20175;-54
2021/11/23 05:38:36;;;;;;;17.33;10.32;;;6.00;99.90;;;;;;5036170;28;20079;-53
2021/11/23 05:41:02;;;;;;;21.92;8.75;;;6.00;99.90;;;;;;5045452;28;20051;-51
2021/11/23 05:43:28;;;;;;;21.30;9.23;;;6.00;99.90;;;;;;5048891;28;20017;-53
2021/11/23 05:45:53;;;;;;;16.83;10.18;;;6.00;99.90;;;;;;5048785;28;20025;-55
2021/11/23 05:48:19;;;;;;;17.75;8.82;;;6.00;99.90;;;;;;5030168;28;20025;-55
2021/11/23 05:50:45;;;;;;;13.05;7.93;;;6.00;99.90;;;;;;5048563;28;20056;-52
2021/11/23 05:53:10;;;;;;;17.08;7.45;;;6.00;99.90;;;;;;5048631;28;20087;-52
2021/11/23 05:55:36;;;;;;;16.10;7.97;;;6.00;99.90;;;;;;5030413;28;20099;-56
2021/11/23 05:58:02;;;;;;;16.48;6.95;;;6.00;99.90;;;;;;5048122;28;20031;-53
2021/11/23 06:00:29;;;;;;;11.73;5.82;;;6.00;99.90;;;;;;5048136;28;20480;-55
2021/11/23 06:02:54;;;;;;;14.13;6.75;;;6.00;99.90;;;;;;5048177;28;20060;-54
2021/11/23 06:05:21;;;;;;;16.40;6.13;;;6.00;99.90;;;;;;5048370;28;20136;-53
2021/11/23 06:07:47;;;;;;;12.60;5.03;;;6.00;99.90;;;;;;5047907;28;20025;-54
2021/11/23 06:10:13;;;;;;;10.07;5.13;;;6.00;99.90;;;;;;5048012;28;20037;-55
2021/11/23 06:12:39;;;;;;;11.93;5.00;;;6.00;99.90;;;;;;5033254;28;20033;-53
2021/11/23 06:15:09;;;;;;;13.38;5.47;;;6.00;99.90;;;;;;5047709;28;20047;-56
2021/11/23 06:17:35;;;;;;;13.10;5.25;;;6.00;99.90;;;;;;5048179;28;20040;-53
2021/11/23 06:20:01;;;;;;;11.25;4.85;;;6.00;99.90;;;;;;5047279;28;20119;-56
2021/11/23 06:22:26;;;;;;;15.38;6.05;;;6.00;99.90;;;;;;5048085;28;20462;-55
2021/11/23 06:24:52;;;;;;;15.25;5.60;;;6.00;99.90;;;;;;5048085;28;20025;-56
2021/11/23 06:27:18;;;;;;;13.65;6.85;;;6.00;99.90;;;;;;5047558;28;20029;-52
2021/11/23 06:29:43;;;;;;;10.10;4.82;;;6.00;99.90;;;;;;5047276;28;20584;-54
2021/11/23 06:32:09;;;;;;;11.63;4.95;;;6.00;99.90;;;;;;5047853;28;20033;-50
2021/11/23 06:34:34;;;;;;;11.43;4.25;;;6.00;99.90;;;;;;5047725;28;20033;-50
2021/11/23 06:37:00;;;;;;;10.48;4.72;;;6.00;99.90;;;;;;5048166;28;20095;-51
2021/11/23 06:39:26;;;;;;;8.82;4.78;;;6.00;99.90;;;;;;5047171;28;20021;-52
2021/11/23 06:41:52;;;;;;;10.88;4.93;;;6.00;99.90;;;;;;5047374;28;20373;-55
2021/11/23 06:44:18;;;;;;;11.73;5.15;;;6.00;99.90;;;;;;5047926;28;20013;-53
2021/11/23 06:46:44;;;;;;;12.27;4.90;;;6.00;99.90;;;;;;5048419;28;20104;-56
2021/11/23 06:49:09;;;;;;;10.93;4.60;;;6.00;99.90;;;;;;5047485;28;20712;-56
2021/11/23 06:51:35;;;;;;;12.25;4.47;;;5.90;99.90;;;;;;5047481;28;20159;-56
2021/11/23 06:54:01;;;;;;;7.47;4.28;;;5.90;99.90;;;;;;5030040;28;20120;-55
2021/11/23 06:56:26;;;;;;;7.38;3.55;;;5.90;99.90;;;;;;5045599;28;20111;-55
2021/11/23 06:58:52;;;;;;;7.50;3.45;;;5.80;99.90;;;;;;5047135;28;20029;-56
2021/11/23 07:01:18;;;;;;;5.10;3.60;;;5.70;99.90;;;;;;5047695;28;20025;-54
2021/11/23 07:03:43;;;;;;;7.35;2.92;;;5.70;99.90;;;;;;5047945;28;20543;-56
2021/11/23 07:06:09;;;;;;;5.15;2.63;;;5.60;99.90;;;;;;5047692;28;20040;-55
2021/11/23 07:08:36;;;;;;;5.82;2.92;;;5.60;99.90;;;;;;5047849;28;20053;-56
2021/11/23 07:11:02;;;;;;;7.40;3.85;;;5.60;99.90;;;;;;5047122;28;20017;-54
2021/11/23 07:13:28;;;;;;;5.63;2.80;;;5.60;99.90;;;;;;5047774;28;20033;-53
2021/11/23 07:15:54;;;;;;;8.30;3.35;;;5.50;99.90;;;;;;5047320;28;20039;-53
2021/11/23 07:18:19;;;;;;;6.10;2.90;;;5.50;99.90;;;;;;5047275;28;20602;-53
2021/11/23 07:20:45;;;;;;;7.28;3.25;;;5.50;99.90;;;;;;5047726;28;20037;-54
2021/11/23 07:23:12;;;;;;;11.20;3.15;;;5.50;99.90;;;;;;5048070;28;20104;-52
2021/11/23 07:25:38;;;;;;;7.50;3.28;;;5.50;99.90;;;;;;5047605;28;20109;-55
2021/11/23 07:28:04;;;;;;;5.57;3.47;;;5.50;99.90;;;;;;5046727;28;20104;-53
2021/11/23 07:30:30;;;;;;;3.53;2.53;;;5.50;99.90;;;;;;5018908;28;20021;-55
2021/11/23 07:32:56;;;;;;;5.78;2.83;;;5.50;99.90;;;;;;5050048;28;20029;-53
2021/11/23 07:35:22;;;;;;;8.02;3.08;;;5.50;99.90;;;;;;5051608;28;20025;-54
2021/11/23 07:37:48;;;;;;;5.70;2.92;;;5.50;99.90;;;;;;5051134;28;20370;-50
2021/11/23 07:40:16;;;;;;;6.45;2.80;;;5.50;99.90;;;;;;5051088;28;20024;-52
2021/11/23 07:42:43;;;;;;;5.18;2.58;;;5.50;99.90;;;;;;5051314;28;20025;-53
2021/11/23 07:45:09;;;;;;;5.20;2.25;;;5.50;99.90;;;;;;5051338;28;20104;-53
2021/11/23 07:47:36;;;;;;;4.82;2.65;;;5.50;99.90;;;;;;5050929;28;20103;-56
2021/11/23 07:50:03;;;;;;;8.23;2.40;;;5.50;99.90;;;;;;5051310;28;20532;-55
2021/11/23 07:52:29;;;;;;;10.18;2.60;;;5.60;99.90;;;;;;5032989;28;20037;-56
2021/11/23 07:54:54;;;;;;;8.95;2.10;;;5.60;99.90;;;;;;5050900;28;20028;-53
2021/11/23 07:57:20;;;;;;;8.15;2.10;;;5.50;99.90;;;;;;5051401;28;20116;-51
2021/11/23 07:59:46;;;;;;;3.97;1.63;;;5.60;99.90;;;;;;5050923;28;20029;-52
2021/11/23 08:02:11;;;;;;;6.05;1.60;;;5.50;99.90;;;;;;5050592;28;20021;-56
2021/11/23 08:04:37;;;;;;;3.75;2.00;;;5.50;99.90;;;;;;5050777;28;20119;-55
2021/11/23 08:07:03;;;;;;;8.00;3.08;;;5.50;99.90;;;;;;5032746;28;20017;-54
2021/11/23 08:09:28;;;;;;;7.65;2.13;;;5.50;99.90;;;;;;5050051;28;20029;-55
2021/11/23 08:11:54;;;;;;;5.65;2.10;;;5.50;99.90;;;;;;5051143;28;20028;-50
2021/11/23 08:14:22;;;;;;;4.07;2.10;;;5.50;99.90;;;;;;5050300;28;20772;-53
2021/11/23 08:16:48;;;;;;;8.63;2.80;;;5.50;99.90;;;;;;5050575;28;20059;-55
2021/11/23 08:19:14;;;;;;;5.28;2.22;;;5.50;99.90;;;;;;5049341;28;20056;-54
2021/11/23 08:21:39;;;;;;;7.28;2.60;;;5.50;99.90;;;;;;5050172;28;20075;-52
2021/11/23 08:24:05;;;;;;;9.70;2.47;;;5.50;99.90;;;;;;5049901;28;20018;-51
2021/11/23 08:26:31;;;;;;;6.95;2.47;;;5.50;99.90;;;;;;5050057;28;20029;-52
2021/11/23 08:28:56;;;;;;;8.15;2.40;;;5.60;99.90;;;;;;5049743;28;20025;-56
2021/11/23 08:31:22;;;;;;;5.65;2.20;;;5.60;99.90;;;;;;5049616;28;20067;-52
2021/11/23 08:33:47;;;;;;;3.28;1.83;;;5.60;99.90;;;;;;5049396;28;20036;-54
2021/11/23 08:36:13;;;;;;;10.88;2.13;;;5.60;99.90;;;;;;5049385;28;20029;-55
2021/11/23 08:38:39;;;;;;;7.45;2.80;;;5.60;99.90;;;;;;5049255;28;20021;-55
2021/11/23 08:41:05;;;;;;;4.72;1.83;;;5.70;99.90;;;;;;5049860;28;20041;-55
2021/11/23 08:43:31;;;;;;;7.03;1.77;;;5.80;99.90;;;;;;5048786;28;20096;-54
2021/11/23 08:45:56;;;;;;;7.55;2.10;;;5.80;99.90;;;;;;5049945;28;20029;-55
2021/11/23 08:48:22;;;;;;;8.73;1.80;;;5.90;99.90;;;;;;5048710;28;20388;-55
2021/11/23 08:50:48;;;;;;;4.93;2.08;;;6.00;99.90;;;;;;5050008;28;20485;-54
2021/11/23 08:53:14;;;;;;;9.80;2.13;;;6.10;99.90;;;;;;5031505;28;20033;-53
2021/11/23 08:55:39;;;;;;;5.38;1.60;;;6.10;99.90;;;;;;5049090;28;20043;-54
2021/11/23 08:58:07;;;;;;;8.60;1.45;;;6.20;99.90;;;;;;5049562;28;20021;-56
2021/11/23 09:00:34;;;;;;;6.55;1.80;;;6.30;99.90;;;;;;5049149;28;20029;-54
2021/11/23 09:03:01;;;;;;;6.95;1.88;;;6.40;99.90;;;;;;5049178;28;20024;-52
2021/11/23 09:05:31;;;;;;;9.27;2.38;;;6.40;99.90;;;;;;5031028;28;20023;-54
2021/11/23 09:07:59;;;;;;;11.68;2.55;;;6.60;99.90;;;;;;5040215;28;20120;-52
2021/11/23 09:10:26;;;;;;;4.72;1.90;;;6.60;99.90;;;;;;5044630;28;20020;-54
2021/11/23 09:12:56;;;;;;;7.85;1.88;;;6.70;99.90;;;;;;5038589;28;20030;-53
2021/11/23 09:15:22;;;;;;;7.88;1.80;;;6.80;99.90;;;;;;5029148;28;20053;-56
2021/11/23 09:17:48;;;;;;;7.07;1.95;;;6.90;99.90;;;;;;5029257;28;20029;-56
2021/11/23 09:20:15;;;;;;;9.48;2.20;;;7.00;99.90;;;;;;5047946;28;20048;-55
2021/11/23 09:22:41;;;;;;;9.77;2.13;;;7.10;99.90;;;;;;5048832;28;20052;-56
2021/11/23 09:25:09;;;;;;;2.40;1.33;;;7.20;99.90;;;;;;5048729;28;20029;-52
2021/11/23 09:27:35;;;;;;;5.82;1.52;;;7.30;99.90;;;;;;5031137;28;20048;-55
2021/11/23 09:30:02;;;;;;;8.20;2.05;;;7.30;99.90;;;;;;5049019;28;20056;-55
2021/11/23 09:32:28;;;;;;;5.53;1.48;;;7.40;99.90;;;;;;5049293;28;20623;-52
2021/11/23 09:34:55;;;;;;;10.23;2.35;;;7.50;99.90;;;;;;5048201;28;20032;-53
2021/11/23 09:37:21;;;;;;;7.07;1.15;;;7.60;99.90;;;;;;5031114;28;20032;-52
2021/11/23 09:39:47;;;;;;;5.47;1.55;;;7.60;99.90;;;;;;5048300;28;20100;-56
2021/11/23 09:42:12;;;;;;;5.95;1.40;;;7.60;99.90;;;;;;5048723;28;20032;-56
2021/11/23 09:44:40;;;;;;;4.53;1.42;;;7.60;99.90;;;;;;5047929;28;20051;-50
2021/11/23 09:47:06;;;;;;;4.50;1.40;;;7.60;99.90;;;;;;5048224;28;20112;-53
2021/11/23 09:49:31;;;;;;;4.00;1.60;;;7.50;99.90;;;;;;5047075;28;20096;-50
2021/11/23 09:51:58;;;;;;;3.50;1.20;;;7.50;99.90;;;;;;5048664;28;20036;-54
2021/11/23 09:54:23;;;;;;;7.45;1.63;;;7.60;99.90;;;;;;5048138;28;20024;-52
2021/11/23 09:56:50;;;;;;;3.80;1.52;;;7.60;99.90;;;;;;5048312;28;20539;-55
2021/11/23 09:59:16;;;;;;;7.07;1.52;;;7.70;99.90;;;;;;5048208;28;20032;-53
2021/11/23 10:01:56;;;;;;;7.03;1.70;;;7.70;99.90;;;;;;5039223;28;20024;-54
2021/11/23 10:04:25;;;;;;;6.10;1.65;;;7.80;99.90;;;;;;5037451;28;20135;-54
2021/11/23 10:06:58;;;;;;;7.43;1.58;;;7.90;99.90;;;;;;5037622;28;20044;-55
2021/11/23 10:09:36;;;;;;;11.70;1.60;;;7.90;99.90;;;;;;5038253;28;20071;-54
2021/11/23 10:12:22;;;;;;;7.35;1.83;;;8.00;99.90;;;;;;5038845;28;20132;-57
2021/11/23 10:15:17;;;;;;;6.13;1.65;;;8.00;99.90;;;;;;5038562;28;20087;-56
2021/11/23 10:17:47;;;;;;;5.55;1.25;;;8.00;99.90;;;;;;5042288;28;20029;-54
2021/11/23 10:20:37;;;;;;;3.85;1.50;;;8.10;99.90;;;;;;5047713;28;20031;-53
2021/11/23 10:23:10;;;;;;;2.72;1.20;;;8.10;99.90;;;;;;5040898;28;20102;-53
2021/11/23 10:25:36;;;;;;;5.75;1.42;;;8.20;99.90;;;;;;5048035;28;20027;-56
2021/11/23 10:28:02;;;;;;;8.82;1.40;;;8.30;99.90;;;;;;5048345;28;20112;-56
2021/11/23 10:30:28;;;;;;;7.15;1.50;;;8.40;99.90;;;;;;5048173;28;20025;-55
2021/11/23 10:32:54;;;;;;;6.90;1.25;;;8.40;99.90;;;;;;5048723;28;20056;-53
2021/11/23 10:35:22;;;;;;;6.75;1.48;;;8.40;99.90;;;;;;5047995;28;20032;-55
2021/11/23 10:37:48;;;;;;;4.40;0.80;;;8.40;99.90;;;;;;5047968;28;20107;-56
2021/11/23 10:40:16;;;;;;;9.07;1.08;;;8.30;99.90;;;;;;5048331;28;20108;-55
2021/11/23 10:42:49;;;;;;;5.85;1.48;;;8.30;99.90;;;;;;5049134;28;20112;-56
2021/11/23 10:45:15;;;;;;;3.85;1.65;;;8.30;99.90;;;;;;5046960;28;20055;-53
2021/11/23 10:47:43;;;;;;;7.75;1.42;;;8.30;99.90;;;;;;5046571;28;20029;-51
2021/11/23 10:50:10;;;;;;;3.55;1.08;;;8.40;99.90;;;;;;5048491;28;20082;-53
2021/11/23 10:52:40;;;;;;;4.10;1.23;;;8.40;99.90;;;;;;5047874;28;20274;-56
2021/11/23 10:55:24;;;;;;;7.55;1.27;;;8.50;99.90;;;;;;5048111;28;20112;-54
2021/11/23 10:57:55;;;;;;;6.20;1.30;;;8.50;99.90;;;;;;5030145;28;20154;-51
2021/11/23 11:00:22;;;;;;;5.03;1.45;;;8.60;99.90;;;;;;5047290;28;20448;-52
2021/11/23 11:02:50;;;;;;;6.10;1.33;;;8.60;99.90;;;;;;5046927;28;20111;-54
2021/11/23 11:05:16;;;;;;;5.65;1.20;;;8.70;99.90;;;;;;5048033;28;20048;-55
2021/11/23 11:07:45;;;;;;;7.90;3.45;;;8.80;99.90;;;;;;5050463;28;20056;-53
2021/11/23 11:10:12;;;;;;;6.85;2.15;;;8.80;99.90;;;;;;5051788;28;20021;-55
2021/11/23 11:12:37;;;;;;;10.70;1.65;;;8.80;99.90;;;;;;5031892;28;20397;-54
2021/11/23 11:15:07;;;;;;;5.10;1.27;;;8.80;99.90;;;;;;5047668;28;20033;-55
2021/11/23 11:17:36;;;;;;;6.72;1.23;;;8.80;99.90;;;;;;5052293;28;20032;-54
2021/11/23 11:20:05;;;;;;;3.60;1.70;;;8.70;99.90;;;;;;5051638;28;20033;-53
2021/11/23 11:22:31;;;;;;;4.65;1.77;;;8.70;99.90;;;;;;5051488;28;20164;-55
2021/11/23 11:27:36;;;;;;;4.28;1.45;;;8.70;99.90;;;;;;5051215;28;20025;-52
2021/11/23 11:30:20;;;;;;;;;;;8.60;99.90;;;;;;5051705;28;20082;-53
2021/11/23 11:32:47;;;;;;;5.97;1.65;;;8.70;99.90;;;;;;5048571;28;20292;-56
2021/11/23 11:35:25;;;;;;;5.55;1.60;;;8.70;99.90;;;;;;5051576;28;20572;-54
2021/11/23 11:37:55;;;;;;;3.42;1.40;;;8.70;99.90;;;;;;5050920;28;20029;-53
2021/11/23 11:40:27;;;;;;;8.63;2.17;;;8.70;99.90;;;;;;5051522;28;20090;-55
2021/11/23 11:42:59;;;;;;;10.57;1.50;;;8.70;99.90;;;;;;5051347;28;20021;-55
2021/11/23 11:45:37;;;;;;;6.63;1.42;;;8.80;99.90;;;;;;5034557;28;20096;-56
2021/11/23 11:48:34;;;;;;;5.57;1.98;;;8.80;99.90;;;;;;5051490;28;20083;-55
2021/11/23 11:51:07;;;;;;;5.35;2.08;;;8.80;99.90;;;;;;5051614;28;20025;-53
2021/11/23 11:53:41;;;;;;;4.03;1.50;;;8.80;99.90;;;;;;5033578;28;20036;-50
2021/11/23 11:56:07;;;;;;;2.22;0.85;;;8.80;99.90;;;;;;5051313;28;20040;-52
2021/11/23 11:58:59;;;;;;;2.88;1.08;;;8.80;99.90;;;;;;5050401;28;20029;-54
2021/11/23 12:01:28;;;;;;;3.60;1.58;;;8.80;99.90;;;;;;5045391;28;20033;-52
2021/11/23 12:04:14;;;;;;;4.55;1.00;;;8.80;99.90;;;;;;5037099;28;20096;-54
2021/11/23 12:06:55;;;;;;;3.55;0.93;;;8.70;99.90;;;;;;5043775;28;20095;-52
2021/11/23 12:09:32;;;;;;;5.00;1.17;;;8.60;99.90;;;;;;5051276;28;20728;-51
2021/11/23 12:12:10;;;;;;;2.38;1.10;;;8.60;99.90;;;;;;5050458;28;20025;-56
2021/11/23 12:14:38;;;;;;;5.00;1.08;;;8.50;99.90;;;;;;5049764;28;20071;-57
2021/11/23 12:17:24;;;;;;;6.38;1.00;;;8.50;99.90;;;;;;5046257;28;20035;-55
2021/11/23 12:20:07;;;;;;;7.38;1.60;;;8.50;99.90;;;;;;5040155;28;20028;-53
2021/11/23 12:22:45;;;;;;;9.15;1.92;;;8.50;99.90;;;;;;5075776;22;20049;-56
2021/11/23 12:25:12;;;;;;;5.45;1.30;;;8.60;99.90;;;;;;5049316;28;20024;-57
2021/11/23 12:27:45;;;;;;;5.10;0.88;;;8.60;99.90;;;;;;5050089;28;20033;-53
2021/11/23 12:30:18;;;;;;;4.97;1.33;;;8.60;99.90;;;;;;5050936;28;20024;-54
2021/11/23 12:32:45;;;;;;;7.15;2.33;;;8.60;99.90;;;;;;5050910;28;20089;-54
2021/11/23 12:35:15;;;;;;;9.77;4.78;;;8.70;99.90;;;;;;5049498;28;20556;-57
2021/11/23 12:37:44;;;;;;;4.90;1.10;;;8.70;99.90;;;;;;5050530;28;20615;-55
2021/11/23 12:40:21;;;;;;;4.82;2.40;;;8.70;99.90;;;;;;5050047;28;20044;-55
2021/11/23 12:42:53;;;;;;;12.68;6.25;;;8.80;99.90;;;;;;5044664;28;20041;-58
2021/11/23 12:45:36;;;;;;;4.65;1.88;;;8.90;99.90;;;;;;5050856;28;20071;-55
2021/11/23 12:48:04;;;;;;;5.70;1.50;;;8.90;99.90;;;;;;5049776;28;20075;-55
2021/11/23 12:50:31;;;;;;;4.72;1.45;;;9.00;99.90;;;;;;5050082;28;20497;-55
2021/11/23 12:53:14;;;;;;;3.10;1.58;;;9.00;99.90;;;;;;5049988;28;20493;-54
2021/11/23 12:55:41;;;;;;;2.28;1.15;;;9.00;99.90;;;;;;5049567;28;20035;-54
2021/11/23 12:58:07;;;;;;;4.90;1.20;;;9.10;99.90;;;;;;5049477;28;20029;-55